sensor_id;sensor_type;location;lat;lon;timestamp;pressure;altitude;pressure_sealevel;temperature;humidity
9139;BME280;4604;48.616;9.548;2023-04-09T00:01:03;97536.09;;;6.86;100.00
9139;BME280;4604;48.616;9.548;2023-04-09T00:03:32;97543.34;;;6.83;100.00
9139;BME280;4604;48.616;9.548;2023-04-09T00:05:59;97542.78;;;6.78;100.00
9139;BME280;4604;48.616;9.548;2023-04-09T00:08:25;97538.78;;;6.72;100.00
9139;BME280;4604;48.616;9.548;2023-04-09T00:10:52;97537.22;;;6.70;100.00
9139;BME280;4604;48.616;9.548;2023-04-09T00:13:20;97533.84;;;6.68;100.00
9139;BME280;4604;48.616;9.548;2023-04-09T00:15:46;97540.78;;;6.69;100.00
9139;BME280;4604;48.616;9.548;2023-04-09T00:18:14;97534.03;;;6.64;100.00
9139;BME280;4604;48.616;9.548;2023-04-09T00:20:43;97535.00;;;6.63;100.00
9139;BME280;4604;48.616;9.548;2023-04-09T00:23:10;97531.63;;;6.61;100.00
9139;BME280;4604;48.616;9.548;2023-04-09T00:25:37;97531.63;;;6.61;100.00
9139;BME280;4604;48.616;9.548;2023-04-09T00:28:03;97534.25;;;6.61;100.00
9139;BME280;4604;48.616;9.548;2023-04-09T00:30:30;97535.00;;;6.63;100.00
9139;BME280;4604;48.616;9.548;2023-04-09T00:32:57;97532.06;;;6.68;100.00
9139;BME280;4604;48.616;9.548;2023-04-09T00:35:23;97525.72;;;6.58;100.00
9139;BME280;4604;48.616;9.548;2023-04-09T00:37:52;97531.09;;;6.56;100.00
9139;BME280;4604;48.616;9.548;2023-04-09T00:40:18;97532.97;;;6.54;100.00
9139;BME280;4604;48.616;9.548;2023-04-09T00:42:45;97533.88;;;6.53;100.00
9139;BME280;4604;48.616;9.548;2023-04-09T00:45:12;97530.56;;;6.51;100.00
9139;BME280;4604;48.616;9.548;2023-04-09T00:47:39;97538.50;;;6.50;100.00
9139;BME280;4604;48.616;9.548;2023-04-09T00:50:08;97532.44;;;6.49;100.00
9139;BME280;4604;48.616;9.548;2023-04-09T00:52:35;97539.25;;;6.52;100.00
9139;BME280;4604;48.616;9.548;2023-04-09T00:55:04;97535.47;;;6.56;100.00
9139;BME280;4604;48.616;9.548;2023-04-09T00:57:31;97525.31;;;6.51;100.00
9139;BME280;4604;48.616;9.548;2023-04-09T00:59:57;97530.84;;;6.47;100.00
9139;BME280;4604;48.616;9.548;2023-04-09T01:02:25;97536.84;;;6.49;100.00
9139;BME280;4604;48.616;9.548;2023-04-09T01:04:52;97529.81;;;6.49;100.00
9139;BME280;4604;48.616;9.548;2023-04-09T01:07:22;97523.59;;;6.50;100.00
9139;BME280;4604;48.616;9.548;2023-04-09T01:09:59;97524.56;;;6.49;100.00
9139;BME280;4604;48.616;9.548;2023-04-09T01:12:32;97533.34;;;6.48;100.00
9139;BME280;4604;48.616;9.548;2023-04-09T01:15:05;97528.09;;;6.48;100.00
9139;BME280;4604;48.616;9.548;2023-04-09T01:17:36;97524.00;;;6.44;100.00
9139;BME280;4604;48.616;9.548;2023-04-09T01:20:12;97527.06;;;6.51;100.00
9139;BME280;4604;48.616;9.548;2023-04-09T01:22:48;97521.47;;;6.42;100.00
9139;BME280;4604;48.616;9.548;2023-04-09T01:25:38;97522.53;;;6.40;100.00
9139;BME280;4604;48.616;9.548;2023-04-09T01:28:18;97519.91;;;6.40;100.00
9139;BME280;4604;48.616;9.548;2023-04-09T01:30:47;97519.81;;;6.41;100.00
9139;BME280;4604;48.616;9.548;2023-04-09T01:33:16;97514.25;;;6.46;100.00
9139;BME280;4604;48.616;9.548;2023-04-09T01:35:45;97517.13;;;6.56;100.00
9139;BME280;4604;48.616;9.548;2023-04-09T01:38:13;97519.72;;;6.56;100.00
9139;BME280;4604;48.616;9.548;2023-04-09T01:40:41;97521.97;;;6.62;100.00
9139;BME280;4604;48.616;9.548;2023-04-09T01:43:09;97514.31;;;6.59;100.00
9139;BME280;4604;48.616;9.548;2023-04-09T01:45:39;97525.84;;;6.56;100.00
9139;BME280;4604;48.616;9.548;2023-04-09T01:48:06;97512.19;;;6.51;100.00
9139;BME280;4604;48.616;9.548;2023-04-09T01:50:33;97521.53;;;6.55;100.00
9139;BME280;4604;48.616;9.548;2023-04-09T01:53:01;97519.03;;;6.54;100.00
9139;BME280;4604;48.616;9.548;2023-04-09T01:55:28;97522.34;;;6.56;100.00
9139;BME280;4604;48.616;9.548;2023-04-09T01:57:54;97527.50;;;6.57;100.00
9139;BME280;4604;48.616;9.548;2023-04-09T02:00:21;97532.84;;;6.56;100.00
9139;BME280;4604;48.616;9.548;2023-04-09T02:02:57;97527.94;;;6.51;100.00
9139;BME280;4604;48.616;9.548;2023-04-09T02:05:26;97531.25;;;6.53;100.00
9139;BME280;4604;48.616;9.548;2023-04-09T02:07:55;97518.78;;;6.44;100.00
9139;BME280;4604;48.616;9.548;2023-04-09T02:10:25;97527.81;;;6.53;100.00
9139;BME280;4604;48.616;9.548;2023-04-09T02:12:54;97532.75;;;6.57;100.00
9139;BME280;4604;48.616;9.548;2023-04-09T02:15:22;97528.22;;;6.47;100.00
9139;BME280;4604;48.616;9.548;2023-04-09T02:17:51;97529.06;;;6.47;100.00
9139;BME280;4604;48.616;9.548;2023-04-09T02:20:18;97524.66;;;6.48;100.00
9139;BME280;4604;48.616;9.548;2023-04-09T02:22:46;97527.81;;;6.53;100.00
9139;BME280;4604;48.616;9.548;2023-04-09T02:25:14;97520.97;;;6.50;100.00
9139;BME280;4604;48.616;9.548;2023-04-09T02:27:40;97523.59;;;6.50;100.00
9139;BME280;4604;48.616;9.548;2023-04-09T02:30:08;97526.53;;;6.46;100.00
9139;BME280;4604;48.616;9.548;2023-04-09T02:32:34;97528.31;;;6.45;100.00
9139;BME280;4604;48.616;9.548;2023-04-09T02:35:04;97521.09;;;6.49;100.00
9139;BME280;4604;48.616;9.548;2023-04-09T02:37:30;97530.63;;;6.50;100.00
9139;BME280;4604;48.616;9.548;2023-04-09T02:39:58;97514.81;;;6.51;100.00
9139;BME280;4604;48.616;9.548;2023-04-09T02:42:25;97529.69;;;6.51;100.00
9139;BME280;4604;48.616;9.548;2023-04-09T02:44:51;97520.16;;;6.50;100.00
9139;BME280;4604;48.616;9.548;2023-04-09T02:47:18;97521.19;;;6.47;100.00
9139;BME280;4604;48.616;9.548;2023-04-09T02:49:45;97509.00;;;6.46;100.00
9139;BME280;4604;48.616;9.548;2023-04-09T02:52:13;97506.72;;;6.41;100.00
9139;BME280;4604;48.616;9.548;2023-04-09T02:54:39;97521.28;;;6.46;100.00
9139;BME280;4604;48.616;9.548;2023-04-09T02:57:06;97524.09;;;6.42;100.00
9139;BME280;4604;48.616;9.548;2023-04-09T02:59:32;97519.16;;;6.38;100.00
9139;BME280;4604;48.616;9.548;2023-04-09T03:02:00;97511.19;;;6.39;100.00
9139;BME280;4604;48.616;9.548;2023-04-09T03:04:26;97514.44;;;6.43;100.00
9139;BME280;4604;48.616;9.548;2023-04-09T03:06:53;97512.78;;;6.42;100.00
9139;BME280;4604;48.616;9.548;2023-04-09T03:09:21;97505.75;;;6.42;100.00
9139;BME280;4604;48.616;9.548;2023-04-09T03:11:48;97507.53;;;6.42;100.00
9139;BME280;4604;48.616;9.548;2023-04-09T03:14:14;97508.72;;;6.51;100.00
9139;BME280;4604;48.616;9.548;2023-04-09T03:16:41;97503.91;;;6.57;100.00
9139;BME280;4604;48.616;9.548;2023-04-09T03:19:07;97509.97;;;6.85;100.00
9139;BME280;4604;48.616;9.548;2023-04-09T03:21:34;97502.53;;;6.52;100.00
9139;BME280;4604;48.616;9.548;2023-04-09T03:24:01;97506.59;;;6.43;100.00
9139;BME280;4604;48.616;9.548;2023-04-09T03:26:29;97501.56;;;6.40;100.00
9139;BME280;4604;48.616;9.548;2023-04-09T03:29:00;97505.88;;;6.27;100.00
9139;BME280;4604;48.616;9.548;2023-04-09T03:31:27;97495.72;;;6.22;100.00
9139;BME280;4604;48.616;9.548;2023-04-09T03:33:53;97501.59;;;6.26;100.00
9139;BME280;4604;48.616;9.548;2023-04-09T03:36:20;97498.88;;;6.27;100.00
9139;BME280;4604;48.616;9.548;2023-04-09T03:38:46;97499.94;;;6.25;100.00
9139;BME280;4604;48.616;9.548;2023-04-09T03:41:13;97501.69;;;6.24;100.00
9139;BME280;4604;48.616;9.548;2023-04-09T03:43:41;97510.28;;;6.26;100.00
9139;BME280;4604;48.616;9.548;2023-04-09T03:46:10;97500.56;;;6.28;100.00
9139;BME280;4604;48.616;9.548;2023-04-09T03:48:37;97508.63;;;6.25;100.00
9139;BME280;4604;48.616;9.548;2023-04-09T03:51:04;97507.88;;;6.23;100.00
9139;BME280;4604;48.616;9.548;2023-04-09T03:53:30;97508.63;;;6.25;100.00
9139;BME280;4604;48.616;9.548;2023-04-09T03:55:57;97510.50;;;6.23;100.00
9139;BME280;4604;48.616;9.548;2023-04-09T03:58:25;97509.75;;;6.21;100.00
9139;BME280;4604;48.616;9.548;2023-04-09T04:00:54;97503.47;;;6.24;100.00
9139;BME280;4604;48.616;9.548;2023-04-09T04:03:20;97502.00;;;6.19;100.00
9139;BME280;4604;48.616;9.548;2023-04-09T04:05:47;97497.78;;;6.17;100.00
9139;BME280;4604;48.616;9.548;2023-04-09T04:08:13;97504.72;;;6.18;100.00
9139;BME280;4604;48.616;9.548;2023-04-09T04:10:40;97503.22;;;6.14;100.00
9139;BME280;4604;48.616;9.548;2023-04-09T04:13:07;97499.75;;;6.13;100.00
9139;BME280;4604;48.616;9.548;2023-04-09T04:15:38;97498.81;;;6.14;100.00
9139;BME280;4604;48.616;9.548;2023-04-09T04:18:07;97501.63;;;6.11;100.00
9139;BME280;4604;48.616;9.548;2023-04-09T04:20:35;97498.81;;;6.14;100.00
9139;BME280;4604;48.616;9.548;2023-04-09T04:23:02;97507.63;;;6.13;100.00
9139;BME280;4604;48.616;9.548;2023-04-09T04:25:30;97506.13;;;6.09;100.00
9139;BME280;4604;48.616;9.548;2023-04-09T04:27:57;97507.06;;;6.08;100.00
9139;BME280;4604;48.616;9.548;2023-04-09T04:30:24;97509.69;;;6.08;100.00
9139;BME280;4604;48.616;9.548;2023-04-09T04:32:50;97510.72;;;6.06;100.00
9139;BME280;4604;48.616;9.548;2023-04-09T04:35:20;97510.06;;;6.02;100.00
9139;BME280;4604;48.616;9.548;2023-04-09T04:37:48;97503.16;;;6.01;100.00
9139;BME280;4604;48.616;9.548;2023-04-09T04:40:15;97516.06;;;6.04;100.00
9139;BME280;4604;48.616;9.548;2023-04-09T04:42:41;97508.31;;;6.03;100.00
9139;BME280;4604;48.616;9.548;2023-04-09T04:45:08;97512.78;;;6.00;100.00
9139;BME280;4604;48.616;9.548;2023-04-09T04:47:35;97509.97;;;6.04;100.00
9139;BME280;4604;48.616;9.548;2023-04-09T04:50:02;97515.31;;;6.02;100.00
9139;BME280;4604;48.616;9.548;2023-04-09T04:52:30;97513.63;;;6.01;100.00
9139;BME280;4604;48.616;9.548;2023-04-09T04:54:57;97498.38;;;5.93;100.00
9139;BME280;4604;48.616;9.548;2023-04-09T04:57:23;97513.00;;;5.97;100.00
9139;BME280;4604;48.616;9.548;2023-04-09T04:59:50;97511.22;;;5.98;100.00
9139;BME280;4604;48.616;9.548;2023-04-09T05:02:17;97508.59;;;5.98;100.00
9139;BME280;4604;48.616;9.548;2023-04-09T05:04:44;97512.78;;;6.00;100.00
9139;BME280;4604;48.616;9.548;2023-04-09T05:07:10;97520.84;;;5.97;100.00
9139;BME280;4604;48.616;9.548;2023-04-09T05:09:38;97510.19;;;6.00;100.00
9139;BME280;4604;48.616;9.548;2023-04-09T05:12:07;97522.44;;;6.00;100.00
9139;BME280;4604;48.616;9.548;2023-04-09T05:14:33;97511.53;;;5.92;100.00
9139;BME280;4604;48.616;9.548;2023-04-09T05:17:00;97514.16;;;5.92;100.00
9139;BME280;4604;48.616;9.548;2023-04-09T05:19:27;97527.09;;;5.95;100.00
9139;BME280;4604;48.616;9.548;2023-04-09T05:21:53;97531.75;;;6.18;100.00
9139;BME280;4604;48.616;9.548;2023-04-09T05:24:20;97528.78;;;6.10;100.00
9139;BME280;4604;48.616;9.548;2023-04-09T05:26:48;97531.38;;;6.25;100.00
9139;BME280;4604;48.616;9.548;2023-04-09T05:29:15;97536.19;;;6.04;100.00
9139;BME280;4604;48.616;9.548;2023-04-09T05:31:41;97533.47;;;6.05;100.00
9139;BME280;4604;48.616;9.548;2023-04-09T05:34:08;97531.28;;;6.12;100.00
9139;BME280;4604;48.616;9.548;2023-04-09T05:36:35;97534.56;;;6.15;100.00
9139;BME280;4604;48.616;9.548;2023-04-09T05:39:02;97533.75;;;6.15;100.00
9139;BME280;4604;48.616;9.548;2023-04-09T05:41:28;97527.00;;;5.96;100.00
9139;BME280;4604;48.616;9.548;2023-04-09T05:43:58;97534.28;;;5.91;100.00
9139;BME280;4604;48.616;9.548;2023-04-09T05:46:25;97530.09;;;5.89;100.00
9139;BME280;4604;48.616;9.548;2023-04-09T05:48:53;97537.56;;;5.95;100.00
9139;BME280;4604;48.616;9.548;2023-04-09T05:51:19;97532.81;;;6.02;100.00
9139;BME280;4604;48.616;9.548;2023-04-09T05:53:46;97539.47;;;6.07;100.00
9139;BME280;4604;48.616;9.548;2023-04-09T05:56:13;97535.41;;;6.16;100.00
9139;BME280;4604;48.616;9.548;2023-04-09T05:58:40;97540.69;;;6.29;100.00
9139;BME280;4604;48.616;9.548;2023-04-09T06:01:09;97538.16;;;6.41;100.00
9139;BME280;4604;48.616;9.548;2023-04-09T06:03:35;97541.03;;;6.51;100.00
9139;BME280;4604;48.616;9.548;2023-04-09T06:06:02;97534.25;;;6.61;99.62
9139;BME280;4604;48.616;9.548;2023-04-09T06:08:29;97539.75;;;6.71;99.30
9139;BME280;4604;48.616;9.548;2023-04-09T06:10:55;97535.47;;;6.83;98.69
9139;BME280;4604;48.616;9.548;2023-04-09T06:13:22;97535.72;;;6.93;97.56
9139;BME280;4604;48.616;9.548;2023-04-09T06:15:49;97535.28;;;6.99;96.69
9139;BME280;4604;48.616;9.548;2023-04-09T06:18:17;97542.34;;;7.11;96.50
9139;BME280;4604;48.616;9.548;2023-04-09T06:20:44;97539.31;;;7.17;95.84
9139;BME280;4604;48.616;9.548;2023-04-09T06:23:11;97546.56;;;7.26;95.14
9139;BME280;4604;48.616;9.548;2023-04-09T06:25:38;97548.69;;;7.34;94.98
9139;BME280;4604;48.616;9.548;2023-04-09T06:28:04;97545.34;;;7.45;94.72
9139;BME280;4604;48.616;9.548;2023-04-09T06:30:31;97542.69;;;7.58;93.01
9139;BME280;4604;48.616;9.548;2023-04-09T06:33:01;97551.63;;;7.81;89.68
9139;BME280;4604;48.616;9.548;2023-04-09T06:35:29;97548.06;;;7.82;88.11
9139;BME280;4604;48.616;9.548;2023-04-09T06:37:56;97550.25;;;7.88;87.17
9139;BME280;4604;48.616;9.548;2023-04-09T06:40:22;97541.44;;;7.76;88.38
9139;BME280;4604;48.616;9.548;2023-04-09T06:42:49;97543.75;;;7.81;87.81
9139;BME280;4604;48.616;9.548;2023-04-09T06:45:15;97548.47;;;7.88;86.99
9139;BME280;4604;48.616;9.548;2023-04-09T06:47:42;97545.31;;;7.96;85.22
9139;BME280;4604;48.616;9.548;2023-04-09T06:50:09;97538.25;;;7.97;83.99
9139;BME280;4604;48.616;9.548;2023-04-09T06:52:37;97549.06;;;8.18;81.65
9139;BME280;4604;48.616;9.548;2023-04-09T06:55:04;97549.16;;;8.16;81.80
9139;BME280;4604;48.616;9.548;2023-04-09T06:57:31;97553.03;;;8.23;82.47
9139;BME280;4604;48.616;9.548;2023-04-09T06:59:58;97554.91;;;8.34;81.54
9139;BME280;4604;48.616;9.548;2023-04-09T07:02:25;97553.53;;;8.28;81.53
9139;BME280;4604;48.616;9.548;2023-04-09T07:04:51;97557.75;;;8.44;80.13
9139;BME280;4604;48.616;9.548;2023-04-09T07:07:18;97558.03;;;8.52;79.86
9139;BME280;4604;48.616;9.548;2023-04-09T07:09:47;97567.72;;;8.51;80.33
9139;BME280;4604;48.616;9.548;2023-04-09T07:12:13;97562.00;;;8.57;80.36
9139;BME280;4604;48.616;9.548;2023-04-09T07:14:43;97563.13;;;8.66;78.77
9139;BME280;4604;48.616;9.548;2023-04-09T07:17:10;97574.03;;;8.73;79.28
9139;BME280;4604;48.616;9.548;2023-04-09T07:19:36;97574.19;;;8.83;79.14
9139;BME280;4604;48.616;9.548;2023-04-09T07:22:03;97577.56;;;8.85;78.66
9139;BME280;4604;48.616;9.548;2023-04-09T07:24:29;97582.78;;;8.97;76.52
9139;BME280;4604;48.616;9.548;2023-04-09T07:27:02;97584.34;;;9.00;75.15
9139;BME280;4604;48.616;9.548;2023-04-09T07:29:28;97577.28;;;9.00;74.77
9139;BME280;4604;48.616;9.548;2023-04-09T07:31:55;97581.88;;;9.10;74.42
9139;BME280;4604;48.616;9.548;2023-04-09T07:34:22;97578.44;;;9.20;73.27
9139;BME280;4604;48.616;9.548;2023-04-09T07:36:48;97584.47;;;9.34;72.22
9139;BME280;4604;48.616;9.548;2023-04-09T07:39:15;97579.72;;;9.39;71.98
9139;BME280;4604;48.616;9.548;2023-04-09T07:41:41;97583.78;;;9.43;70.74
9139;BME280;4604;48.616;9.548;2023-04-09T07:44:10;97588.22;;;9.42;70.50
9139;BME280;4604;48.616;9.548;2023-04-09T07:46:38;97577.22;;;9.60;70.06
9139;BME280;4604;48.616;9.548;2023-04-09T07:49:05;97580.59;;;9.62;69.25
9139;BME280;4604;48.616;9.548;2023-04-09T07:51:32;97580.81;;;9.70;68.12
9139;BME280;4604;48.616;9.548;2023-04-09T07:53:58;97571.50;;;9.77;67.46
9139;BME280;4604;48.616;9.548;2023-04-09T07:56:25;97573.66;;;9.83;67.39
9139;BME280;4604;48.616;9.548;2023-04-09T07:58:51;97581.22;;;9.88;67.66
9139;BME280;4604;48.616;9.548;2023-04-09T08:01:19;97588.41;;;10.08;66.38
9139;BME280;4604;48.616;9.548;2023-04-09T08:03:49;97593.72;;;10.20;65.29
9139;BME280;4604;48.616;9.548;2023-04-09T08:06:15;97589.38;;;10.07;64.96
9139;BME280;4604;48.616;9.548;2023-04-09T08:08:42;97584.97;;;10.19;65.75
9139;BME280;4604;48.616;9.548;2023-04-09T08:11:09;97590.56;;;10.26;64.53
9139;BME280;4604;48.616;9.548;2023-04-09T08:13:35;97593.22;;;10.26;64.88
9139;BME280;4604;48.616;9.548;2023-04-09T08:16:02;97583.06;;;10.33;64.89
9139;BME280;4604;48.616;9.548;2023-04-09T08:18:31;97592.84;;;10.53;63.47
9139;BME280;4604;48.616;9.548;2023-04-09T08:20:57;97590.69;;;10.58;64.16
9139;BME280;4604;48.616;9.548;2023-04-09T08:23:24;97595.13;;;10.69;64.34
9139;BME280;4604;48.616;9.548;2023-04-09T08:25:50;97590.94;;;10.66;64.27
9139;BME280;4604;48.616;9.548;2023-04-09T08:28:17;97597.53;;;10.61;64.63
9139;BME280;4604;48.616;9.548;2023-04-09T08:30:44;97593.66;;;10.65;64.22
9139;BME280;4604;48.616;9.548;2023-04-09T08:33:12;97598.69;;;10.68;62.77
9139;BME280;4604;48.616;9.548;2023-04-09T08:35:40;97604.94;;;10.78;61.89
9139;BME280;4604;48.616;9.548;2023-04-09T08:38:07;97606.69;;;10.89;61.31
9139;BME280;4604;48.616;9.548;2023-04-09T08:40:34;97609.06;;;11.03;60.62
9139;BME280;4604;48.616;9.548;2023-04-09T08:43:04;97618.06;;;11.12;58.99
9139;BME280;4604;48.616;9.548;2023-04-09T08:45:31;97611.59;;;11.05;60.47
9139;BME280;4604;48.616;9.548;2023-04-09T08:47:58;97617.56;;;11.07;60.10
9139;BME280;4604;48.616;9.548;2023-04-09T08:50:25;97617.81;;;11.04;60.59
9139;BME280;4604;48.616;9.548;2023-04-09T08:52:53;97620.53;;;11.25;59.79
9139;BME280;4604;48.616;9.548;2023-04-09T08:55:21;97626.47;;;11.38;58.67
9139;BME280;4604;48.616;9.548;2023-04-09T08:57:48;97619.06;;;11.32;58.59
9139;BME280;4604;48.616;9.548;2023-04-09T09:00:14;97627.00;;;11.21;59.71
9139;BME280;4604;48.616;9.548;2023-04-09T09:03:02;97622.66;;;11.31;59.41
9139;BME280;4604;48.616;9.548;2023-04-09T09:05:37;97625.53;;;11.28;59.01
9139;BME280;4604;48.616;9.548;2023-04-09T09:08:06;97629.63;;;11.53;58.74
9139;BME280;4604;48.616;9.548;2023-04-09T09:10:37;97631.91;;;11.57;57.46
9139;BME280;4604;48.616;9.548;2023-04-09T09:13:15;97631.91;;;11.57;57.47
9139;BME280;4604;48.616;9.548;2023-04-09T09:15:42;97631.50;;;11.62;57.93
9139;BME280;4604;48.616;9.548;2023-04-09T09:18:10;97627.59;;;11.56;58.80
9139;BME280;4604;48.616;9.548;2023-04-09T09:20:37;97635.25;;;11.60;58.50
9139;BME280;4604;48.616;9.548;2023-04-09T09:23:04;97631.50;;;11.62;58.08
9139;BME280;4604;48.616;9.548;2023-04-09T09:25:37;97626.19;;;11.73;56.62
9139;BME280;4604;48.616;9.548;2023-04-09T09:28:07;97621.44;;;11.88;56.90
9139;BME280;4604;48.616;9.548;2023-04-09T09:30:35;97627.34;;;12.02;56.84
9139;BME280;4604;48.616;9.548;2023-04-09T09:33:05;97629.53;;;12.17;56.88
9139;BME280;4604;48.616;9.548;2023-04-09T09:35:46;97621.34;;;12.30;55.18
9139;BME280;4604;48.616;9.548;2023-04-09T09:38:13;97625.63;;;12.21;55.23
9139;BME280;4604;48.616;9.548;2023-04-09T09:40:42;97622.81;;;12.13;56.01
9139;BME280;4604;48.616;9.548;2023-04-09T09:43:08;97620.31;;;12.21;54.88
9139;BME280;4604;48.616;9.548;2023-04-09T09:45:35;97629.53;;;12.17;54.36
9139;BME280;4604;48.616;9.548;2023-04-09T09:48:03;97619.34;;;12.13;53.73
9139;BME280;4604;48.616;9.548;2023-04-09T09:50:30;97621.00;;;12.14;53.11
9139;BME280;4604;48.616;9.548;2023-04-09T09:53:00;97624.34;;;12.16;52.15
9139;BME280;4604;48.616;9.548;2023-04-09T09:55:30;97622.81;;;11.92;52.11
9139;BME280;4604;48.616;9.548;2023-04-09T09:58:01;97621.88;;;11.93;52.84
9139;BME280;4604;48.616;9.548;2023-04-09T10:00:30;97614.88;;;12.13;51.55
9139;BME280;4604;48.616;9.548;2023-04-09T10:03:04;97614.00;;;12.03;51.25
9139;BME280;4604;48.616;9.548;2023-04-09T10:05:34;97608.84;;;12.32;51.10
9139;BME280;4604;48.616;9.548;2023-04-09T10:08:01;97615.50;;;12.77;50.60
9139;BME280;4604;48.616;9.548;2023-04-09T10:10:30;97613.59;;;12.89;51.02
9139;BME280;4604;48.616;9.548;2023-04-09T10:12:58;97620.56;;;12.99;49.82
9139;BME280;4604;48.616;9.548;2023-04-09T10:15:27;97614.34;;;13.20;48.58
9139;BME280;4604;48.616;9.548;2023-04-09T10:17:54;97619.03;;;13.06;48.41
9139;BME280;4604;48.616;9.548;2023-04-09T10:20:25;97605.66;;;13.08;48.63
9139;BME280;4604;48.616;9.548;2023-04-09T10:22:54;97604.31;;;13.33;47.29
9139;BME280;4604;48.616;9.548;2023-04-09T10:25:22;97591.47;;;13.28;47.47
9139;BME280;4604;48.616;9.548;2023-04-09T10:28:00;97609.97;;;13.09;47.15
9139;BME280;4604;48.616;9.548;2023-04-09T10:30:34;97606.78;;;12.96;47.97
9139;BME280;4604;48.616;9.548;2023-04-09T10:33:12;97610.63;;;12.82;48.47
9139;BME280;4604;48.616;9.548;2023-04-09T10:35:39;97608.28;;;12.89;47.89
9139;BME280;4604;48.616;9.548;2023-04-09T10:38:06;97612.88;;;12.77;48.04
9139;BME280;4604;48.616;9.548;2023-04-09T10:40:34;97605.09;;;12.85;46.70
9139;BME280;4604;48.616;9.548;2023-04-09T10:43:02;97597.13;;;12.75;46.21
9139;BME280;4604;48.616;9.548;2023-04-09T10:45:38;97604.38;;;12.73;47.28
9139;BME280;4604;48.616;9.548;2023-04-09T10:48:10;97604.06;;;12.67;47.02
9139;BME280;4604;48.616;9.548;2023-04-09T10:50:38;97603.91;;;12.58;46.78
9139;BME280;4604;48.616;9.548;2023-04-09T10:53:05;97598.00;;;12.45;46.08
9139;BME280;4604;48.616;9.548;2023-04-09T10:55:33;97600.69;;;12.55;46.10
9139;BME280;4604;48.616;9.548;2023-04-09T10:58:03;97593.50;;;12.86;45.59
9139;BME280;4604;48.616;9.548;2023-04-09T11:00:30;97590.75;;;13.17;46.14
9139;BME280;4604;48.616;9.548;2023-04-09T11:03:19;97578.91;;;13.31;45.47
9139;BME280;4604;48.616;9.548;2023-04-09T11:05:50;97578.22;;;13.38;44.61
9139;BME280;4604;48.616;9.548;2023-04-09T11:08:18;97581.41;;;13.13;44.86
9139;BME280;4604;48.616;9.548;2023-04-09T11:10:46;97578.59;;;13.14;43.88
9139;BME280;4604;48.616;9.548;2023-04-09T11:13:15;97576.66;;;13.06;44.99
9139;BME280;4604;48.616;9.548;2023-04-09T11:15:43;97579.88;;;13.00;46.28
9139;BME280;4604;48.616;9.548;2023-04-09T11:18:13;97581.94;;;13.26;45.88
9139;BME280;4604;48.616;9.548;2023-04-09T11:20:40;97572.66;;;13.41;44.94
9139;BME280;4604;48.616;9.548;2023-04-09T11:23:07;97555.75;;;13.42;43.79
9139;BME280;4604;48.616;9.548;2023-04-09T11:25:34;97569.09;;;13.70;45.29
9139;BME280;4604;48.616;9.548;2023-04-09T11:28:02;97556.78;;;13.88;44.05
9139;BME280;4604;48.616;9.548;2023-04-09T11:30:30;97560.91;;;14.38;44.29
9139;BME280;4604;48.616;9.548;2023-04-09T11:32:59;97558.56;;;14.53;43.68
9139;BME280;4604;48.616;9.548;2023-04-09T11:35:26;97561.22;;;14.53;43.45
9139;BME280;4604;48.616;9.548;2023-04-09T11:37:52;97563.50;;;14.48;44.30
9139;BME280;4604;48.616;9.548;2023-04-09T11:40:20;97553.38;;;14.33;42.21
9139;BME280;4604;48.616;9.548;2023-04-09T11:42:49;97551.75;;;14.23;40.88
9139;BME280;4604;48.616;9.548;2023-04-09T11:45:17;97560.03;;;13.63;42.61
9139;BME280;4604;48.616;9.548;2023-04-09T11:47:45;97557.38;;;13.24;41.71
9139;BME280;4604;48.616;9.548;2023-04-09T11:50:13;97551.66;;;12.99;44.08
9139;BME280;4604;48.616;9.548;2023-04-09T11:52:40;97567.16;;;13.04;43.43
9139;BME280;4604;48.616;9.548;2023-04-09T11:55:07;97569.97;;;12.93;43.22
9139;BME280;4604;48.616;9.548;2023-04-09T11:57:36;97565.78;;;12.90;44.84
9139;BME280;4604;48.616;9.548;2023-04-09T12:00:08;97567.31;;;12.93;45.92
9139;BME280;4604;48.616;9.548;2023-04-09T12:02:37;97560.75;;;13.16;43.98
9139;BME280;4604;48.616;9.548;2023-04-09T12:05:08;97565.91;;;12.98;44.83
9139;BME280;4604;48.616;9.548;2023-04-09T12:07:35;97556.72;;;13.02;45.13
9139;BME280;4604;48.616;9.548;2023-04-09T12:10:03;97564.94;;;13.19;44.98
9139;BME280;4604;48.616;9.548;2023-04-09T12:12:30;97561.56;;;13.56;43.91
9139;BME280;4604;48.616;9.548;2023-04-09T12:14:56;97563.00;;;13.50;43.39
9139;BME280;4604;48.616;9.548;2023-04-09T12:17:23;97561.06;;;13.42;43.94
9139;BME280;4604;48.616;9.548;2023-04-09T12:19:50;97548.22;;;13.38;43.77
9139;BME280;4604;48.616;9.548;2023-04-09T12:22:18;97545.44;;;13.39;41.44
9139;BME280;4604;48.616;9.548;2023-04-09T12:24:45;97541.63;;;13.61;41.98
9139;BME280;4604;48.616;9.548;2023-04-09T12:27:11;97538.59;;;13.94;42.93
9139;BME280;4604;48.616;9.548;2023-04-09T12:29:38;97546.34;;;14.15;42.50
9139;BME280;4604;48.616;9.548;2023-04-09T12:32:05;97546.88;;;14.46;42.29
9139;BME280;4604;48.616;9.548;2023-04-09T12:34:32;97543.91;;;14.59;40.59
9139;BME280;4604;48.616;9.548;2023-04-09T12:36:59;97550.88;;;14.60;40.93
9139;BME280;4604;48.616;9.548;2023-04-09T12:39:27;97548.41;;;14.76;42.14
9139;BME280;4604;48.616;9.548;2023-04-09T12:41:54;97543.03;;;15.04;41.58
9139;BME280;4604;48.616;9.548;2023-04-09T12:44:21;97539.53;;;15.21;40.77
9139;BME280;4604;48.616;9.548;2023-04-09T12:46:48;97546.13;;;14.99;38.76
9139;BME280;4604;48.616;9.548;2023-04-09T12:49:15;97544.38;;;14.90;38.85
9139;BME280;4604;48.616;9.548;2023-04-09T12:51:42;97537.16;;;14.64;39.53
9139;BME280;4604;48.616;9.548;2023-04-09T12:54:09;97535.59;;;14.44;38.91
9139;BME280;4604;48.616;9.548;2023-04-09T12:56:38;97538.69;;;14.39;40.92
9139;BME280;4604;48.616;9.548;2023-04-09T12:59:04;97530.09;;;14.45;39.47
9139;BME280;4604;48.616;9.548;2023-04-09T13:01:31;97536.59;;;14.33;40.89
9139;BME280;4604;48.616;9.548;2023-04-09T13:03:58;97532.50;;;14.11;40.44
9139;BME280;4604;48.616;9.548;2023-04-09T13:06:24;97534.44;;;13.81;41.54
9139;BME280;4604;48.616;9.548;2023-04-09T13:08:51;97526.06;;;13.86;41.96
9139;BME280;4604;48.616;9.548;2023-04-09T13:11:18;97525.50;;;13.82;42.38
9139;BME280;4604;48.616;9.548;2023-04-09T13:13:46;97515.59;;;13.75;42.03
9139;BME280;4604;48.616;9.548;2023-04-09T13:16:13;97522.63;;;13.66;43.03
9139;BME280;4604;48.616;9.548;2023-04-09T13:18:40;97517.31;;;13.66;42.66
9139;BME280;4604;48.616;9.548;2023-04-09T13:21:07;97519.13;;;13.65;42.60
9139;BME280;4604;48.616;9.548;2023-04-09T13:23:33;97516.09;;;13.51;44.05
9139;BME280;4604;48.616;9.548;2023-04-09T13:26:00;97519.97;;;13.66;43.25